sensor_id;sensor_type;location;lat;lon;timestamp;temperature;humidity
80579;SHT31;69939;52.402;6.608;2023-05-10T00:00:02;12.57;99.99
80579;SHT31;69939;52.402;6.608;2023-05-10T00:02:31;12.49;99.99
80579;SHT31;69939;52.402;6.608;2023-05-10T00:04:59;12.49;99.99
80579;SHT31;69939;52.402;6.608;2023-05-10T00:07:27;12.46;99.99
80579;SHT31;69939;52.402;6.608;2023-05-10T00:09:54;12.48;99.99
80579;SHT31;69939;52.402;6.608;2023-05-10T00:12:21;12.48;99.99
80579;SHT31;69939;52.402;6.608;2023-05-10T00:14:47;12.46;99.99
80579;SHT31;69939;52.402;6.608;2023-05-10T00:17:15;12.45;99.99
80579;SHT31;69939;52.402;6.608;2023-05-10T00:19:43;12.41;99.99
80579;SHT31;69939;52.402;6.608;2023-05-10T00:22:17;12.41;99.99
80579;SHT31;69939;52.402;6.608;2023-05-10T00:24:45;12.41;99.99
80579;SHT31;69939;52.402;6.608;2023-05-10T00:27:12;12.41;99.99
80579;SHT31;69939;52.402;6.608;2023-05-10T00:29:39;12.42;99.99
80579;SHT31;69939;52.402;6.608;2023-05-10T00:32:06;12.43;99.99
80579;SHT31;69939;52.402;6.608;2023-05-10T00:34:33;12.41;99.99
80579;SHT31;69939;52.402;6.608;2023-05-10T00:37:02;12.41;99.99
80579;SHT31;69939;52.402;6.608;2023-05-10T00:39:29;12.38;99.99
80579;SHT31;69939;52.402;6.608;2023-05-10T00:41:56;12.41;99.99
80579;SHT31;69939;52.402;6.608;2023-05-10T00:44:25;12.35;99.99
80579;SHT31;69939;52.402;6.608;2023-05-10T00:46:54;12.35;99.99
80579;SHT31;69939;52.402;6.608;2023-05-10T00:49:21;12.31;99.99
80579;SHT31;69939;52.402;6.608;2023-05-10T00:51:48;12.34;99.99
80579;SHT31;69939;52.402;6.608;2023-05-10T00:54:17;12.34;99.99
80579;SHT31;69939;52.402;6.608;2023-05-10T00:56:44;12.32;99.99
80579;SHT31;69939;52.402;6.608;2023-05-10T00:59:16;12.32;99.99
80579;SHT31;69939;52.402;6.608;2023-05-10T01:01:53;12.29;99.99
80579;SHT31;69939;52.402;6.608;2023-05-10T01:04:19;12.29;99.99
80579;SHT31;69939;52.402;6.608;2023-05-10T01:06:51;12.29;99.99
80579;SHT31;69939;52.402;6.608;2023-05-10T01:09:21;12.29;99.99
80579;SHT31;69939;52.402;6.608;2023-05-10T01:11:48;12.29;99.99
80579;SHT31;69939;52.402;6.608;2023-05-10T01:14:18;12.32;99.99
80579;SHT31;69939;52.402;6.608;2023-05-10T01:16:48;12.28;99.99
80579;SHT31;69939;52.402;6.608;2023-05-10T01:19:19;12.31;99.99
80579;SHT31;69939;52.402;6.608;2023-05-10T01:21:55;12.29;99.99
80579;SHT31;69939;52.402;6.608;2023-05-10T01:24:43;12.28;99.99
80579;SHT31;69939;52.402;6.608;2023-05-10T01:31:06;12.29;99.99
80579;SHT31;69939;52.402;6.608;2023-05-10T01:33:47;12.32;99.99
80579;SHT31;69939;52.402;6.608;2023-05-10T01:36:25;12.31;99.99
80579;SHT31;69939;52.402;6.608;2023-05-10T01:39:01;12.31;99.99
80579;SHT31;69939;52.402;6.608;2023-05-10T01:41:41;12.31;99.99
80579;SHT31;69939;52.402;6.608;2023-05-10T01:44:18;12.32;99.99
80579;SHT31;69939;52.402;6.608;2023-05-10T01:46:56;12.29;99.99
80579;SHT31;69939;52.402;6.608;2023-05-10T01:49:32;12.26;99.99
80579;SHT31;69939;52.402;6.608;2023-05-10T01:52:07;12.28;99.99
80579;SHT31;69939;52.402;6.608;2023-05-10T01:54:43;12.22;99.99
80579;SHT31;69939;52.402;6.608;2023-05-10T01:57:32;12.24;99.99
80579;SHT31;69939;52.402;6.608;2023-05-10T02:00:02;12.24;99.99
80579;SHT31;69939;52.402;6.608;2023-05-10T02:02:33;12.25;99.99
80579;SHT31;69939;52.402;6.608;2023-05-10T02:05:06;12.24;99.99
80579;SHT31;69939;52.402;6.608;2023-05-10T02:07:36;12.22;99.99
80579;SHT31;69939;52.402;6.608;2023-05-10T02:10:06;12.20;99.99
80579;SHT31;69939;52.402;6.608;2023-05-10T02:12:38;12.20;99.99
80579;SHT31;69939;52.402;6.608;2023-05-10T02:15:11;12.18;99.99
80579;SHT31;69939;52.402;6.608;2023-05-10T02:17:42;12.20;99.99
80579;SHT31;69939;52.402;6.608;2023-05-10T02:20:11;12.22;99.99
80579;SHT31;69939;52.402;6.608;2023-05-10T02:22:45;12.18;99.99
80579;SHT31;69939;52.402;6.608;2023-05-10T02:25:17;12.20;99.99
80579;SHT31;69939;52.402;6.608;2023-05-10T02:27:47;12.20;99.99
80579;SHT31;69939;52.402;6.608;2023-05-10T02:30:15;12.18;99.99
80579;SHT31;69939;52.402;6.608;2023-05-10T02:32:44;12.18;99.99
80579;SHT31;69939;52.402;6.608;2023-05-10T02:35:15;12.18;99.99
80579;SHT31;69939;52.402;6.608;2023-05-10T02:37:46;12.17;99.99
80579;SHT31;69939;52.402;6.608;2023-05-10T02:40:16;12.14;99.99
80579;SHT31;69939;52.402;6.608;2023-05-10T02:42:45;12.13;99.99
80579;SHT31;69939;52.402;6.608;2023-05-10T02:45:19;12.14;99.99
80579;SHT31;69939;52.402;6.608;2023-05-10T02:47:48;12.14;99.99
80579;SHT31;69939;52.402;6.608;2023-05-10T02:50:17;12.14;99.99
80579;SHT31;69939;52.402;6.608;2023-05-10T02:52:50;12.11;99.99
80579;SHT31;69939;52.402;6.608;2023-05-10T02:55:20;12.10;99.99
80579;SHT31;69939;52.402;6.608;2023-05-10T02:58:00;12.10;99.99
80579;SHT31;69939;52.402;6.608;2023-05-10T03:00:28;12.10;99.99
80579;SHT31;69939;52.402;6.608;2023-05-10T03:02:57;12.11;99.99
80579;SHT31;69939;52.402;6.608;2023-05-10T03:05:26;12.08;99.99
80579;SHT31;69939;52.402;6.608;2023-05-10T03:07:53;12.14;99.99
80579;SHT31;69939;52.402;6.608;2023-05-10T03:10:23;12.14;99.99
80579;SHT31;69939;52.402;6.608;2023-05-10T03:13:05;12.13;99.99
80579;SHT31;69939;52.402;6.608;2023-05-10T03:15:47;12.11;99.99
80579;SHT31;69939;52.402;6.608;2023-05-10T03:18:23;12.11;99.99
80579;SHT31;69939;52.402;6.608;2023-05-10T03:20:59;12.11;99.99
80579;SHT31;69939;52.402;6.608;2023-05-10T03:23:35;12.08;99.99
80579;SHT31;69939;52.402;6.608;2023-05-10T03:26:05;12.15;99.99
80579;SHT31;69939;52.402;6.608;2023-05-10T03:28:34;12.17;99.99
80579;SHT31;69939;52.402;6.608;2023-05-10T03:31:04;12.15;99.99
80579;SHT31;69939;52.402;6.608;2023-05-10T03:33:32;12.20;99.99
80579;SHT31;69939;52.402;6.608;2023-05-10T03:36:00;12.21;99.99
80579;SHT31;69939;52.402;6.608;2023-05-10T03:38:27;12.20;99.99
80579;SHT31;69939;52.402;6.608;2023-05-10T03:40:57;12.21;99.99
80579;SHT31;69939;52.402;6.608;2023-05-10T03:43:23;12.17;99.99
80579;SHT31;69939;52.402;6.608;2023-05-10T03:45:50;12.20;99.99
80579;SHT31;69939;52.402;6.608;2023-05-10T03:48:19;12.20;99.99
80579;SHT31;69939;52.402;6.608;2023-05-10T03:50:47;12.22;99.99
80579;SHT31;69939;52.402;6.608;2023-05-10T03:53:18;12.22;99.99
80579;SHT31;69939;52.402;6.608;2023-05-10T03:55:46;12.21;99.99
80579;SHT31;69939;52.402;6.608;2023-05-10T03:58:13;12.22;99.99
80579;SHT31;69939;52.402;6.608;2023-05-10T04:00:39;12.22;99.99
80579;SHT31;69939;52.402;6.608;2023-05-10T04:03:09;12.21;99.99
80579;SHT31;69939;52.402;6.608;2023-05-10T04:05:36;12.25;99.99
80579;SHT31;69939;52.402;6.608;2023-05-10T04:08:03;12.24;99.99
80579;SHT31;69939;52.402;6.608;2023-05-10T04:10:32;12.26;99.99
80579;SHT31;69939;52.402;6.608;2023-05-10T04:12:59;12.29;99.99
80579;SHT31;69939;52.402;6.608;2023-05-10T04:15:25;12.34;99.99
80579;SHT31;69939;52.402;6.608;2023-05-10T04:17:52;12.39;99.99
80579;SHT31;69939;52.402;6.608;2023-05-10T04:20:20;12.35;99.99
80579;SHT31;69939;52.402;6.608;2023-05-10T04:22:48;12.36;99.99
80579;SHT31;69939;52.402;6.608;2023-05-10T04:25:17;12.38;99.99
80579;SHT31;69939;52.402;6.608;2023-05-10T04:27:48;12.39;99.99
80579;SHT31;69939;52.402;6.608;2023-05-10T04:30:15;12.46;99.99
80579;SHT31;69939;52.402;6.608;2023-05-10T04:32:42;12.43;99.99
80579;SHT31;69939;52.402;6.608;2023-05-10T04:35:10;12.43;99.99
80579;SHT31;69939;52.402;6.608;2023-05-10T04:37:37;12.42;99.99
80579;SHT31;69939;52.402;6.608;2023-05-10T04:40:05;12.48;99.99
80579;SHT31;69939;52.402;6.608;2023-05-10T04:42:34;12.52;99.99
80579;SHT31;69939;52.402;6.608;2023-05-10T04:45:02;12.57;99.99
80579;SHT31;69939;52.402;6.608;2023-05-10T04:47:30;12.56;99.99
80579;SHT31;69939;52.402;6.608;2023-05-10T04:49:58;12.55;99.99
80579;SHT31;69939;52.402;6.608;2023-05-10T04:52:26;12.56;99.99
80579;SHT31;69939;52.402;6.608;2023-05-10T04:54:53;12.60;99.99
80579;SHT31;69939;52.402;6.608;2023-05-10T04:57:20;12.62;99.99
80579;SHT31;69939;52.402;6.608;2023-05-10T04:59:47;12.64;99.99
80579;SHT31;69939;52.402;6.608;2023-05-10T05:02:15;12.64;99.99
80579;SHT31;69939;52.402;6.608;2023-05-10T05:04:42;12.60;99.99
80579;SHT31;69939;52.402;6.608;2023-05-10T05:07:09;12.63;99.99
80579;SHT31;69939;52.402;6.608;2023-05-10T05:09:36;12.66;99.99
80579;SHT31;69939;52.402;6.608;2023-05-10T05:12:03;12.69;99.99
80579;SHT31;69939;52.402;6.608;2023-05-10T05:14:31;12.66;99.99
80579;SHT31;69939;52.402;6.608;2023-05-10T05:16:58;12.72;99.99
80579;SHT31;69939;52.402;6.608;2023-05-10T05:19:31;12.69;99.99
80579;SHT31;69939;52.402;6.608;2023-05-10T05:21:58;12.70;99.99
80579;SHT31;69939;52.402;6.608;2023-05-10T05:24:25;12.76;99.99
80579;SHT31;69939;52.402;6.608;2023-05-10T05:26:51;12.75;99.99
80579;SHT31;69939;52.402;6.608;2023-05-10T05:29:21;12.80;99.99
80579;SHT31;69939;52.402;6.608;2023-05-10T05:31:49;12.80;99.99
80579;SHT31;69939;52.402;6.608;2023-05-10T05:34:16;12.82;99.99
80579;SHT31;69939;52.402;6.608;2023-05-10T05:36:44;12.87;99.99
80579;SHT31;69939;52.402;6.608;2023-05-10T05:39:12;12.91;99.99
80579;SHT31;69939;52.402;6.608;2023-05-10T05:41:40;12.93;99.99
80579;SHT31;69939;52.402;6.608;2023-05-10T05:44:08;12.86;99.99
80579;SHT31;69939;52.402;6.608;2023-05-10T05:46:35;12.89;99.99
80579;SHT31;69939;52.402;6.608;2023-05-10T05:49:02;12.96;99.99
80579;SHT31;69939;52.402;6.608;2023-05-10T05:51:28;13.07;99.99
80579;SHT31;69939;52.402;6.608;2023-05-10T05:53:57;13.06;99.99
80579;SHT31;69939;52.402;6.608;2023-05-10T05:56:24;13.10;99.99
80579;SHT31;69939;52.402;6.608;2023-05-10T05:58:55;13.11;99.99
80579;SHT31;69939;52.402;6.608;2023-05-10T06:01:22;13.07;99.99
80579;SHT31;69939;52.402;6.608;2023-05-10T06:03:48;13.03;99.99
80579;SHT31;69939;52.402;6.608;2023-05-10T06:06:15;12.97;99.99
80579;SHT31;69939;52.402;6.608;2023-05-10T06:08:41;13.06;99.99
80579;SHT31;69939;52.402;6.608;2023-05-10T06:11:09;13.08;99.63
80579;SHT31;69939;52.402;6.608;2023-05-10T06:13:36;13.07;99.99
80579;SHT31;69939;52.402;6.608;2023-05-10T06:16:03;13.04;99.92
80579;SHT31;69939;52.402;6.608;2023-05-10T06:18:30;13.21;99.99
80579;SHT31;69939;52.402;6.608;2023-05-10T06:20:57;13.27;99.75
80579;SHT31;69939;52.402;6.608;2023-05-10T06:23:24;13.22;99.13
80579;SHT31;69939;52.402;6.608;2023-05-10T06:25:51;13.27;99.76
80579;SHT31;69939;52.402;6.608;2023-05-10T06:28:22;13.24;99.33
80579;SHT31;69939;52.402;6.608;2023-05-10T06:30:48;13.22;99.39
80579;SHT31;69939;52.402;6.608;2023-05-10T06:33:15;13.35;99.36
80579;SHT31;69939;52.402;6.608;2023-05-10T06:35:42;13.25;99.21
80579;SHT31;69939;52.402;6.608;2023-05-10T06:38:09;13.31;99.12
80579;SHT31;69939;52.402;6.608;2023-05-10T06:40:36;13.28;98.65
80579;SHT31;69939;52.402;6.608;2023-05-10T06:43:03;13.28;98.67
80579;SHT31;69939;52.402;6.608;2023-05-10T06:45:31;13.25;98.82
80579;SHT31;69939;52.402;6.608;2023-05-10T06:47:57;13.28;98.67
80579;SHT31;69939;52.402;6.608;2023-05-10T06:50:24;13.22;99.30
80579;SHT31;69939;52.402;6.608;2023-05-10T06:52:51;13.14;97.97
80579;SHT31;69939;52.402;6.608;2023-05-10T06:55:18;13.22;98.62
80579;SHT31;69939;52.402;6.608;2023-05-10T06:57:45;13.17;97.99
80579;SHT31;69939;52.402;6.608;2023-05-10T07:00:13;13.18;98.33
80579;SHT31;69939;52.402;6.608;2023-05-10T07:02:41;13.22;98.09
80579;SHT31;69939;52.402;6.608;2023-05-10T07:05:08;13.17;98.19
80579;SHT31;69939;52.402;6.608;2023-05-10T07:07:35;13.24;98.12
80579;SHT31;69939;52.402;6.608;2023-05-10T07:10:02;13.25;98.24
80579;SHT31;69939;52.402;6.608;2023-05-10T07:12:35;13.31;97.46
80579;SHT31;69939;52.402;6.608;2023-05-10T07:15:04;13.59;97.74
80579;SHT31;69939;52.402;6.608;2023-05-10T07:17:31;13.39;96.69
80579;SHT31;69939;52.402;6.608;2023-05-10T07:20:00;13.37;98.12
80579;SHT31;69939;52.402;6.608;2023-05-10T07:22:27;13.22;97.20
80579;SHT31;69939;52.402;6.608;2023-05-10T07:24:54;13.44;98.20
80579;SHT31;69939;52.402;6.608;2023-05-10T07:27:21;13.47;98.61
80579;SHT31;69939;52.402;6.608;2023-05-10T07:29:47;13.21;98.13
80579;SHT31;69939;52.402;6.608;2023-05-10T07:32:17;12.99;98.51
80579;SHT31;69939;52.402;6.608;2023-05-10T07:34:46;13.10;98.43
80579;SHT31;69939;52.402;6.608;2023-05-10T07:37:14;13.20;98.62
80579;SHT31;69939;52.402;6.608;2023-05-10T07:39:41;13.24;97.99
80579;SHT31;69939;52.402;6.608;2023-05-10T07:42:08;13.07;98.61
80579;SHT31;69939;52.402;6.608;2023-05-10T07:44:35;13.25;98.31
80579;SHT31;69939;52.402;6.608;2023-05-10T07:47:01;13.14;97.86
80579;SHT31;69939;52.402;6.608;2023-05-10T07:49:28;13.34;98.29
80579;SHT31;69939;52.402;6.608;2023-05-10T07:51:55;13.22;98.12
80579;SHT31;69939;52.402;6.608;2023-05-10T07:54:23;13.12;97.90
80579;SHT31;69939;52.402;6.608;2023-05-10T07:56:50;13.14;97.80
80579;SHT31;69939;52.402;6.608;2023-05-10T07:59:17;13.12;98.01
80579;SHT31;69939;52.402;6.608;2023-05-10T08:01:45;13.18;98.09
80579;SHT31;69939;52.402;6.608;2023-05-10T08:04:12;13.29;97.32
80579;SHT31;69939;52.402;6.608;2023-05-10T08:06:39;13.27;96.98
80579;SHT31;69939;52.402;6.608;2023-05-10T08:09:06;13.27;96.77
80579;SHT31;69939;52.402;6.608;2023-05-10T08:11:34;13.49;95.89
80579;SHT31;69939;52.402;6.608;2023-05-10T08:14:01;13.58;94.76
80579;SHT31;69939;52.402;6.608;2023-05-10T08:16:28;13.75;96.11
80579;SHT31;69939;52.402;6.608;2023-05-10T08:18:54;13.73;95.68
80579;SHT31;69939;52.402;6.608;2023-05-10T08:21:21;13.42;94.43
80579;SHT31;69939;52.402;6.608;2023-05-10T08:23:48;13.48;94.99
80579;SHT31;69939;52.402;6.608;2023-05-10T08:26:17;13.61;94.28
80579;SHT31;69939;52.402;6.608;2023-05-10T08:28:45;13.63;94.42
80579;SHT31;69939;52.402;6.608;2023-05-10T08:31:12;13.72;94.06
80579;SHT31;69939;52.402;6.608;2023-05-10T08:33:39;13.93;94.14
80579;SHT31;69939;52.402;6.608;2023-05-10T08:36:06;13.91;93.41
80579;SHT31;69939;52.402;6.608;2023-05-10T08:38:32;14.10;94.39
80579;SHT31;69939;52.402;6.608;2023-05-10T08:41:01;14.09;92.85
80579;SHT31;69939;52.402;6.608;2023-05-10T08:43:29;14.41;92.69
80579;SHT31;69939;52.402;6.608;2023-05-10T08:46:00;14.30;90.72
80579;SHT31;69939;52.402;6.608;2023-05-10T08:48:29;14.38;90.88
80579;SHT31;69939;52.402;6.608;2023-05-10T08:50:58;14.48;91.41
80579;SHT31;69939;52.402;6.608;2023-05-10T08:53:28;14.38;90.57
80579;SHT31;69939;52.402;6.608;2023-05-10T08:55:57;14.58;89.42
80579;SHT31;69939;52.402;6.608;2023-05-10T08:58:24;15.20;91.67
80579;SHT31;69939;52.402;6.608;2023-05-10T09:00:51;14.68;88.75
80579;SHT31;69939;52.402;6.608;2023-05-10T09:03:21;14.62;88.21
80579;SHT31;69939;52.402;6.608;2023-05-10T09:05:48;14.93;90.04
80579;SHT31;69939;52.402;6.608;2023-05-10T09:08:15;15.00;89.58
80579;SHT31;69939;52.402;6.608;2023-05-10T09:10:44;14.88;90.29
80579;SHT31;69939;52.402;6.608;2023-05-10T09:13:12;14.72;89.15
80579;SHT31;69939;52.402;6.608;2023-05-10T09:15:41;14.68;88.73
80579;SHT31;69939;52.402;6.608;2023-05-10T09:18:11;15.09;89.25
80579;SHT31;69939;52.402;6.608;2023-05-10T09:20:42;14.89;87.97
80579;SHT31;69939;52.402;6.608;2023-05-10T09:23:09;15.04;87.73
80579;SHT31;69939;52.402;6.608;2023-05-10T09:25:35;14.91;89.63
80579;SHT31;69939;52.402;6.608;2023-05-10T09:28:06;14.82;90.73
80579;SHT31;69939;52.402;6.608;2023-05-10T09:30:35;14.61;88.68
80579;SHT31;69939;52.402;6.608;2023-05-10T09:33:02;15.13;89.15
80579;SHT31;69939;52.402;6.608;2023-05-10T09:35:29;15.16;88.67
80579;SHT31;69939;52.402;6.608;2023-05-10T09:38:00;14.88;88.40
80579;SHT31;69939;52.402;6.608;2023-05-10T09:40:30;14.82;88.14
80579;SHT31;69939;52.402;6.608;2023-05-10T09:42:58;14.83;89.88
80579;SHT31;69939;52.402;6.608;2023-05-10T09:45:27;14.88;89.34
80579;SHT31;69939;52.402;6.608;2023-05-10T09:47:56;14.99;89.12
80579;SHT31;69939;52.402;6.608;2023-05-10T09:50:24;14.67;87.55
80579;SHT31;69939;52.402;6.608;2023-05-10T09:52:53;14.51;88.57
80579;SHT31;69939;52.402;6.608;2023-05-10T09:55:26;14.54;88.48
80579;SHT31;69939;52.402;6.608;2023-05-10T09:58:04;14.45;88.85
80579;SHT31;69939;52.402;6.608;2023-05-10T10:00:36;14.27;88.75
80579;SHT31;69939;52.402;6.608;2023-05-10T10:03:04;14.27;89.92
80579;SHT31;69939;52.402;6.608;2023-05-10T10:05:31;14.37;89.84
80579;SHT31;69939;52.402;6.608;2023-05-10T10:07:59;14.72;90.47
80579;SHT31;69939;52.402;6.608;2023-05-10T10:10:30;14.60;90.00
80579;SHT31;69939;52.402;6.608;2023-05-10T10:12:58;14.40;89.17
80579;SHT31;69939;52.402;6.608;2023-05-10T10:15:26;14.48;89.27
80579;SHT31;69939;52.402;6.608;2023-05-10T10:17:53;14.48;88.78
80579;SHT31;69939;52.402;6.608;2023-05-10T10:20:21;14.58;88.63
80579;SHT31;69939;52.402;6.608;2023-05-10T10:22:50;14.35;87.25
80579;SHT31;69939;52.402;6.608;2023-05-10T10:25:17;14.34;87.16
80579;SHT31;69939;52.402;6.608;2023-05-10T10:27:59;14.31;86.96
80579;SHT31;69939;52.402;6.608;2023-05-10T10:30:39;14.33;86.55
80579;SHT31;69939;52.402;6.608;2023-05-10T10:33:29;14.34;86.87
80579;SHT31;69939;52.402;6.608;2023-05-10T10:36:03;14.38;86.97
80579;SHT31;69939;52.402;6.608;2023-05-10T10:38:38;14.18;86.01
80579;SHT31;69939;52.402;6.608;2023-05-10T10:41:32;14.34;86.86
80579;SHT31;69939;52.402;6.608;2023-05-10T10:44:28;14.20;86.59
80579;SHT31;69939;52.402;6.608;2023-05-10T10:47:02;14.31;87.86
80579;SHT31;69939;52.402;6.608;2023-05-10T10:49:37;14.17;87.39
80579;SHT31;69939;52.402;6.608;2023-05-10T10:52:22;14.28;88.76
80579;SHT31;69939;52.402;6.608;2023-05-10T10:54:58;14.42;88.71
80579;SHT31;69939;52.402;6.608;2023-05-10T10:57:26;14.28;88.25
80579;SHT31;69939;52.402;6.608;2023-05-10T11:00:27;14.38;87.42
80579;SHT31;69939;52.402;6.608;2023-05-10T11:02:57;14.31;87.70
80579;SHT31;69939;52.402;6.608;2023-05-10T11:05:44;14.60;87.21
80579;SHT31;69939;52.402;6.608;2023-05-10T11:08:13;14.83;86.20
80579;SHT31;69939;52.402;6.608;2023-05-10T11:11:06;14.88;86.10
80579;SHT31;69939;52.402;6.608;2023-05-10T11:13:36;15.16;85.19
80579;SHT31;69939;52.402;6.608;2023-05-10T11:16:17;15.46;86.31
80579;SHT31;69939;52.402;6.608;2023-05-10T11:18:57;15.10;85.07
80579;SHT31;69939;52.402;6.608;2023-05-10T11:21:27;14.92;84.27
80579;SHT31;69939;52.402;6.608;2023-05-10T11:23:56;15.03;85.77
80579;SHT31;69939;52.402;6.608;2023-05-10T11:26:27;15.38;84.43
80579;SHT31;69939;52.402;6.608;2023-05-10T11:28:57;15.13;83.54
80579;SHT31;69939;52.402;6.608;2023-05-10T11:31:28;15.04;84.84
80579;SHT31;69939;52.402;6.608;2023-05-10T11:33:58;15.06;85.45
80579;SHT31;69939;52.402;6.608;2023-05-10T11:36:28;15.16;86.02
80579;SHT31;69939;52.402;6.608;2023-05-10T11:38:56;15.24;84.92
80579;SHT31;69939;52.402;6.608;2023-05-10T11:41:24;15.00;84.14
80579;SHT31;69939;52.402;6.608;2023-05-10T11:43:54;14.93;84.97
80579;SHT31;69939;52.402;6.608;2023-05-10T11:46:22;15.26;84.21
80579;SHT31;69939;52.402;6.608;2023-05-10T11:48:52;15.69;84.29
80579;SHT31;69939;52.402;6.608;2023-05-10T11:51:21;15.57;81.60
80579;SHT31;69939;52.402;6.608;2023-05-10T11:53:49;15.67;82.69
80579;SHT31;69939;52.402;6.608;2023-05-10T11:56:17;15.58;80.72
80579;SHT31;69939;52.402;6.608;2023-05-10T11:58:52;15.48;81.86
80579;SHT31;69939;52.402;6.608;2023-05-10T12:01:22;15.40;81.38
80579;SHT31;69939;52.402;6.608;2023-05-10T12:03:52;15.51;80.83
80579;SHT31;69939;52.402;6.608;2023-05-10T12:06:21;15.57;81.67
80579;SHT31;69939;52.402;6.608;2023-05-10T12:08:48;15.77;80.73
80579;SHT31;69939;52.402;6.608;2023-05-10T12:11:17;15.51;80.30
80579;SHT31;69939;52.402;6.608;2023-05-10T12:13:46;15.94;79.36
80579;SHT31;69939;52.402;6.608;2023-05-10T12:16:13;15.68;82.86
80579;SHT31;69939;52.402;6.608;2023-05-10T12:18:41;16.22;81.50
80579;SHT31;69939;52.402;6.608;2023-05-10T12:21:11;16.29;80.98
80579;SHT31;69939;52.402;6.608;2023-05-10T12:23:41;15.71;83.79
80579;SHT31;69939;52.402;6.608;2023-05-10T12:26:09;15.20;84.09
80579;SHT31;69939;52.402;6.608;2023-05-10T12:28:37;15.03;85.29
80579;SHT31;69939;52.402;6.608;2023-05-10T12:31:06;15.23;85.32
80579;SHT31;69939;52.402;6.608;2023-05-10T12:33:36;15.09;85.30
80579;SHT31;69939;52.402;6.608;2023-05-10T12:36:07;15.20;84.80
80579;SHT31;69939;52.402;6.608;2023-05-10T12:38:36;15.36;83.43
80579;SHT31;69939;52.402;6.608;2023-05-10T12:41:05;15.20;84.70
80579;SHT31;69939;52.402;6.608;2023-05-10T12:43:34;15.27;84.55
80579;SHT31;69939;52.402;6.608;2023-05-10T12:46:05;15.34;84.12
80579;SHT31;69939;52.402;6.608;2023-05-10T12:48:34;15.26;84.98
80579;SHT31;69939;52.402;6.608;2023-05-10T12:51:01;15.38;84.26
80579;SHT31;69939;52.402;6.608;2023-05-10T12:53:28;15.57;84.78
80579;SHT31;69939;52.402;6.608;2023-05-10T12:55:57;15.48;82.47
80579;SHT31;69939;52.402;6.608;2023-05-10T12:58:24;15.46;83.21
80579;SHT31;69939;52.402;6.608;2023-05-10T13:00:50;15.24;83.58
80579;SHT31;69939;52.402;6.608;2023-05-10T13:03:18;15.94;83.34
80579;SHT31;69939;52.402;6.608;2023-05-10T13:05:47;15.92;81.66
80579;SHT31;69939;52.402;6.608;2023-05-10T13:08:16;16.09;80.65
80579;SHT31;69939;52.402;6.608;2023-05-10T13:10:43;16.16;79.01
80579;SHT31;69939;52.402;6.608;2023-05-10T13:13:17;16.81;78.71
80579;SHT31;69939;52.402;6.608;2023-05-10T13:15:45;16.94;77.95
80579;SHT31;69939;52.402;6.608;2023-05-10T13:18:11;16.27;80.06
80579;SHT31;69939;52.402;6.608;2023-05-10T13:20:38;16.89;79.16
80579;SHT31;69939;52.402;6.608;2023-05-10T13:23:05;18.19;76.63
80579;SHT31;69939;52.402;6.608;2023-05-10T13:25:31;17.63;77.21
80579;SHT31;69939;52.402;6.608;2023-05-10T13:27:59;17.42;79.61
80579;SHT31;69939;52.402;6.608;2023-05-10T13:30:27;16.80;79.15
80579;SHT31;69939;52.402;6.608;2023-05-10T13:32:54;16.32;80.86
80579;SHT31;69939;52.402;6.608;2023-05-10T13:35:21;16.26;79.60
80579;SHT31;69939;52.402;6.608;2023-05-10T13:37:48;16.01;80.56
80579;SHT31;69939;52.402;6.608;2023-05-10T13:40:15;16.04;80.87
80579;SHT31;69939;52.402;6.608;2023-05-10T13:42:42;15.72;81.73
80579;SHT31;69939;52.402;6.608;2023-05-10T13:45:09;15.79;83.01
80579;SHT31;69939;52.402;6.608;2023-05-10T13:47:38;15.53;82.82
80579;SHT31;69939;52.402;6.608;2023-05-10T13:50:08;15.30;83.58
80579;SHT31;69939;52.402;6.608;2023-05-10T13:52:35;15.07;83.78
80579;SHT31;69939;52.402;6.608;2023-05-10T13:55:02;15.47;84.33
80579;SHT31;69939;52.402;6.608;2023-05-10T13:57:28;15.46;84.92
80579;SHT31;69939;52.402;6.608;2023-05-10T13:59:55;15.48;83.61
80579;SHT31;69939;52.402;6.608;2023-05-10T14:02:22;15.38;83.45
80579;SHT31;69939;52.402;6.608;2023-05-10T14:04:51;15.50;84.94
80579;SHT31;69939;52.402;6.608;2023-05-10T14:07:17;15.31;85.08
80579;SHT31;69939;52.402;6.608;2023-05-10T14:09:47;15.24;84.21
80579;SHT31;69939;52.402;6.608;2023-05-10T14:12:17;15.41;83.68
80579;SHT31;69939;52.402;6.608;2023-05-10T14:14:47;15.46;83.26
80579;SHT31;69939;52.402;6.608;2023-05-10T14:17:16;15.62;84.06
80579;SHT31;69939;52.402;6.608;2023-05-10T14:19:43;15.53;83.36
80579;SHT31;69939;52.402;6.608;2023-05-10T14:22:11;15.40;83.82
80579;SHT31;69939;52.402;6.608;2023-05-10T14:24:38;15.29;84.42
80579;SHT31;69939;52.402;6.608;2023-05-10T14:27:04;15.59;82.39
80579;SHT31;69939;52.402;6.608;2023-05-10T14:29:31;15.62;81.93
80579;SHT31;69939;52.402;6.608;2023-05-10T14:31:58;15.69;81.55
80579;SHT31;69939;52.402;6.608;2023-05-10T14:34:25;15.24;82.79
80579;SHT31;69939;52.402;6.608;2023-05-10T14:36:52;15.77;81.79
80579;SHT31;69939;52.402;6.608;2023-05-10T14:39:20;15.50;81.81
80579;SHT31;69939;52.402;6.608;2023-05-10T14:41:47;15.51;81.85
80579;SHT31;69939;52.402;6.608;2023-05-10T14:44:16;15.46;81.99
80579;SHT31;69939;52.402;6.608;2023-05-10T14:46:43;15.51;81.49
80579;SHT31;69939;52.402;6.608;2023-05-10T14:49:13;15.38;81.99
80579;SHT31;69939;52.402;6.608;2023-05-10T14:51:40;15.77;82.39
80579;SHT31;69939;52.402;6.608;2023-05-10T14:54:07;15.58;82.12
80579;SHT31;69939;52.402;6.608;2023-05-10T14:56:37;15.85;81.71
80579;SHT31;69939;52.402;6.608;2023-05-10T14:59:04;15.91;80.46
80579;SHT31;69939;52.402;6.608;2023-05-10T15:01:30;15.54;81.05
80579;SHT31;69939;52.402;6.608;2023-05-10T15:03:58;15.84;80.67
80579;SHT31;69939;52.402;6.608;2023-05-10T15:06:30;16.06;80.21
80579;SHT31;69939;52.402;6.608;2023-05-10T15:08:57;15.67;81.44
80579;SHT31;69939;52.402;6.608;2023-05-10T15:11:25;15.89;80.96
80579;SHT31;69939;52.402;6.608;2023-05-10T15:13:53;15.81;81.45
80579;SHT31;69939;52.402;6.608;2023-05-10T15:16:20;15.77;81.22
80579;SHT31;69939;52.402;6.608;2023-05-10T15:18:46;15.71;82.65
80579;SHT31;69939;52.402;6.608;2023-05-10T15:21:13;15.96;83.30
80579;SHT31;69939;52.402;6.608;2023-05-10T15:23:40;15.82;82.03
80579;SHT31;69939;52.402;6.608;2023-05-10T15:26:07;15.58;82.35
80579;SHT31;69939;52.402;6.608;2023-05-10T15:28:33;15.88;82.13
80579;SHT31;69939;52.402;6.608;2023-05-10T15:31:01;15.88;83.60
80579;SHT31;69939;52.402;6.608;2023-05-10T15:33:28;15.88;82.45
80579;SHT31;69939;52.402;6.608;2023-05-10T15:35:54;15.89;82.75
80579;SHT31;69939;52.402;6.608;2023-05-10T15:38:21;15.84;83.02
80579;SHT31;69939;52.402;6.608;2023-05-10T15:40:48;15.94;82.44
80579;SHT31;69939;52.402;6.608;2023-05-10T15:43:15;15.94;82.06
80579;SHT31;69939;52.402;6.608;2023-05-10T15:45:42;16.01;82.41